sensor_id;sensor_type;location;lat;lon;timestamp;P1;P2;P0
30342;PMS5003;17145;49.902;8.680;2023-06-22T00:01:06;15;15;
30342;PMS5003;17145;49.902;8.680;2023-06-22T00:03:33;14;13;
30342;PMS5003;17145;49.902;8.680;2023-06-22T00:06:01;13;13;
30342;PMS5003;17145;49.902;8.680;2023-06-22T00:08:28;13;13;
30342;PMS5003;17145;49.902;8.680;2023-06-22T00:10:56;14;14;
30342;PMS5003;17145;49.902;8.680;2023-06-22T00:13:23;12;12;
30342;PMS5003;17145;49.902;8.680;2023-06-22T00:15:50;15;15;
30342;PMS5003;17145;49.902;8.680;2023-06-22T00:18:18;14;14;
30342;PMS5003;17145;49.902;8.680;2023-06-22T00:20:45;14;14;
30342;PMS5003;17145;49.902;8.680;2023-06-22T00:23:13;14;13;
30342;PMS5003;17145;49.902;8.680;2023-06-22T00:25:40;14;13;
30342;PMS5003;17145;49.902;8.680;2023-06-22T00:28:08;15;15;
30342;PMS5003;17145;49.902;8.680;2023-06-22T00:30:35;14;13;
30342;PMS5003;17145;49.902;8.680;2023-06-22T00:33:03;14;14;
30342;PMS5003;17145;49.902;8.680;2023-06-22T00:35:30;14;14;
30342;PMS5003;17145;49.902;8.680;2023-06-22T00:37:58;13;13;
30342;PMS5003;17145;49.902;8.680;2023-06-22T00:40:27;12;12;
30342;PMS5003;17145;49.902;8.680;2023-06-22T00:42:55;11;11;
30342;PMS5003;17145;49.902;8.680;2023-06-22T00:45:23;14;13;
30342;PMS5003;17145;49.902;8.680;2023-06-22T00:47:51;10;10;
30342;PMS5003;17145;49.902;8.680;2023-06-22T00:50:20;15;15;
30342;PMS5003;17145;49.902;8.680;2023-06-22T00:52:50;12;12;
30342;PMS5003;17145;49.902;8.680;2023-06-22T00:55:19;14;14;
30342;PMS5003;17145;49.902;8.680;2023-06-22T00:57:48;13;12;
30342;PMS5003;17145;49.902;8.680;2023-06-22T01:00:16;12;12;
30342;PMS5003;17145;49.902;8.680;2023-06-22T01:02:44;13;13;
30342;PMS5003;17145;49.902;8.680;2023-06-22T01:05:13;12;11;
30342;PMS5003;17145;49.902;8.680;2023-06-22T01:07:42;12;12;
30342;PMS5003;17145;49.902;8.680;2023-06-22T01:10:21;12;12;
30342;PMS5003;17145;49.902;8.680;2023-06-22T01:12:55;18;18;
30342;PMS5003;17145;49.902;8.680;2023-06-22T01:15:28;14;14;
30342;PMS5003;17145;49.902;8.680;2023-06-22T01:18:00;16;15;
30342;PMS5003;17145;49.902;8.680;2023-06-22T01:20:30;14;13;
30342;PMS5003;17145;49.902;8.680;2023-06-22T01:23:07;25;25;
30342;PMS5003;17145;49.902;8.680;2023-06-22T01:25:43;21;21;
30342;PMS5003;17145;49.902;8.680;2023-06-22T01:28:20;11;11;
30342;PMS5003;17145;49.902;8.680;2023-06-22T01:30:51;13;13;
30342;PMS5003;17145;49.902;8.680;2023-06-22T01:33:19;12;12;
30342;PMS5003;17145;49.902;8.680;2023-06-22T01:35:47;11;11;
30342;PMS5003;17145;49.902;8.680;2023-06-22T01:38:15;26;26;
30342;PMS5003;17145;49.902;8.680;2023-06-22T01:40:43;19;18;
30342;PMS5003;17145;49.902;8.680;2023-06-22T01:43:10;20;20;
30342;PMS5003;17145;49.902;8.680;2023-06-22T01:45:38;23;22;
30342;PMS5003;17145;49.902;8.680;2023-06-22T01:48:05;18;18;
30342;PMS5003;17145;49.902;8.680;2023-06-22T01:50:34;15;15;
30342;PMS5003;17145;49.902;8.680;2023-06-22T01:53:01;15;15;
30342;PMS5003;17145;49.902;8.680;2023-06-22T01:55:29;13;13;
30342;PMS5003;17145;49.902;8.680;2023-06-22T01:57:56;13;13;
30342;PMS5003;17145;49.902;8.680;2023-06-22T02:00:24;14;13;
30342;PMS5003;17145;49.902;8.680;2023-06-22T02:02:56;13;13;
30342;PMS5003;17145;49.902;8.680;2023-06-22T02:05:26;13;11;
30342;PMS5003;17145;49.902;8.680;2023-06-22T02:07:59;11;10;
30342;PMS5003;17145;49.902;8.680;2023-06-22T02:10:29;11;10;
30342;PMS5003;17145;49.902;8.680;2023-06-22T02:12:58;12;12;
30342;PMS5003;17145;49.902;8.680;2023-06-22T02:15:27;12;12;
30342;PMS5003;17145;49.902;8.680;2023-06-22T02:17:55;12;12;
30342;PMS5003;17145;49.902;8.680;2023-06-22T02:20:23;10;10;
30342;PMS5003;17145;49.902;8.680;2023-06-22T02:22:51;13;13;
30342;PMS5003;17145;49.902;8.680;2023-06-22T02:25:18;12;12;
30342;PMS5003;17145;49.902;8.680;2023-06-22T02:27:46;13;13;
30342;PMS5003;17145;49.902;8.680;2023-06-22T02:30:14;11;11;
30342;PMS5003;17145;49.902;8.680;2023-06-22T02:32:42;12;12;
30342;PMS5003;17145;49.902;8.680;2023-06-22T02:35:09;12;12;
30342;PMS5003;17145;49.902;8.680;2023-06-22T02:37:37;11;11;
30342;PMS5003;17145;49.902;8.680;2023-06-22T02:40:05;12;12;
30342;PMS5003;17145;49.902;8.680;2023-06-22T02:42:34;10;10;
30342;PMS5003;17145;49.902;8.680;2023-06-22T02:45:01;12;12;
30342;PMS5003;17145;49.902;8.680;2023-06-22T02:47:29;11;11;
30342;PMS5003;17145;49.902;8.680;2023-06-22T02:49:56;17;17;
30342;PMS5003;17145;49.902;8.680;2023-06-22T02:52:24;21;19;
30342;PMS5003;17145;49.902;8.680;2023-06-22T02:54:51;25;24;
30342;PMS5003;17145;49.902;8.680;2023-06-22T02:57:19;11;11;
30342;PMS5003;17145;49.902;8.680;2023-06-22T02:59:46;11;11;
30342;PMS5003;17145;49.902;8.680;2023-06-22T03:02:13;13;13;
30342;PMS5003;17145;49.902;8.680;2023-06-22T03:04:41;11;11;
30342;PMS5003;17145;49.902;8.680;2023-06-22T03:07:08;14;14;
30342;PMS5003;17145;49.902;8.680;2023-06-22T03:09:36;16;16;
30342;PMS5003;17145;49.902;8.680;2023-06-22T03:12:03;16;16;
30342;PMS5003;17145;49.902;8.680;2023-06-22T03:14:31;14;14;
30342;PMS5003;17145;49.902;8.680;2023-06-22T03:16:58;12;12;
30342;PMS5003;17145;49.902;8.680;2023-06-22T03:19:26;11;11;
30342;PMS5003;17145;49.902;8.680;2023-06-22T03:21:53;12;11;
30342;PMS5003;17145;49.902;8.680;2023-06-22T03:24:20;11;11;
30342;PMS5003;17145;49.902;8.680;2023-06-22T03:26:48;12;11;
30342;PMS5003;17145;49.902;8.680;2023-06-22T03:29:15;9;9;
30342;PMS5003;17145;49.902;8.680;2023-06-22T03:31:42;10;10;
30342;PMS5003;17145;49.902;8.680;2023-06-22T03:34:10;9;9;
30342;PMS5003;17145;49.902;8.680;2023-06-22T03:36:37;10;9;
30342;PMS5003;17145;49.902;8.680;2023-06-22T03:39:04;10;10;
30342;PMS5003;17145;49.902;8.680;2023-06-22T03:41:32;31;31;
30342;PMS5003;17145;49.902;8.680;2023-06-22T03:43:59;46;46;
30342;PMS5003;17145;49.902;8.680;2023-06-22T03:46:27;29;22;
30342;PMS5003;17145;49.902;8.680;2023-06-22T03:48:54;27;22;
30342;PMS5003;17145;49.902;8.680;2023-06-22T03:51:22;24;18;
30342;PMS5003;17145;49.902;8.680;2023-06-22T03:53:49;44;42;
30342;PMS5003;17145;49.902;8.680;2023-06-22T03:56:16;18;12;
30342;PMS5003;17145;49.902;8.680;2023-06-22T03:58:44;25;20;
30342;PMS5003;17145;49.902;8.680;2023-06-22T04:01:12;28;21;
30342;PMS5003;17145;49.902;8.680;2023-06-22T04:03:40;36;31;
30342;PMS5003;17145;49.902;8.680;2023-06-22T04:06:08;84;76;
30342;PMS5003;17145;49.902;8.680;2023-06-22T04:08:35;115;108;
30342;PMS5003;17145;49.902;8.680;2023-06-22T04:11:03;125;118;
30342;PMS5003;17145;49.902;8.680;2023-06-22T04:13:30;134;129;
30342;PMS5003;17145;49.902;8.680;2023-06-22T04:15:57;89;83;
30342;PMS5003;17145;49.902;8.680;2023-06-22T04:18:25;15;13;
30342;PMS5003;17145;49.902;8.680;2023-06-22T04:20:52;9;9;
30342;PMS5003;17145;49.902;8.680;2023-06-22T04:23:19;9;9;
30342;PMS5003;17145;49.902;8.680;2023-06-22T04:25:47;10;10;
30342;PMS5003;17145;49.902;8.680;2023-06-22T04:28:14;9;9;
30342;PMS5003;17145;49.902;8.680;2023-06-22T04:30:41;11;11;
30342;PMS5003;17145;49.902;8.680;2023-06-22T04:33:09;10;9;
30342;PMS5003;17145;49.902;8.680;2023-06-22T04:35:36;10;10;
30342;PMS5003;17145;49.902;8.680;2023-06-22T04:38:03;9;9;
30342;PMS5003;17145;49.902;8.680;2023-06-22T04:40:31;10;10;
30342;PMS5003;17145;49.902;8.680;2023-06-22T04:42:58;12;11;
30342;PMS5003;17145;49.902;8.680;2023-06-22T04:45:26;9;9;
30342;PMS5003;17145;49.902;8.680;2023-06-22T04:47:53;11;11;
30342;PMS5003;17145;49.902;8.680;2023-06-22T04:50:21;11;11;
30342;PMS5003;17145;49.902;8.680;2023-06-22T04:52:48;13;13;
30342;PMS5003;17145;49.902;8.680;2023-06-22T04:55:16;13;13;
30342;PMS5003;17145;49.902;8.680;2023-06-22T04:57:44;12;12;
30342;PMS5003;17145;49.902;8.680;2023-06-22T05:00:12;14;14;
30342;PMS5003;17145;49.902;8.680;2023-06-22T05:02:40;12;12;
30342;PMS5003;17145;49.902;8.680;2023-06-22T05:05:08;12;11;
30342;PMS5003;17145;49.902;8.680;2023-06-22T05:07:35;14;13;
30342;PMS5003;17145;49.902;8.680;2023-06-22T05:10:03;13;12;
30342;PMS5003;17145;49.902;8.680;2023-06-22T05:12:31;15;13;
30342;PMS5003;17145;49.902;8.680;2023-06-22T05:14:58;11;11;
30342;PMS5003;17145;49.902;8.680;2023-06-22T05:17:26;12;12;
30342;PMS5003;17145;49.902;8.680;2023-06-22T05:19:53;11;11;
30342;PMS5003;17145;49.902;8.680;2023-06-22T05:22:21;10;10;
30342;PMS5003;17145;49.902;8.680;2023-06-22T05:24:48;14;12;
30342;PMS5003;17145;49.902;8.680;2023-06-22T05:27:16;14;13;
30342;PMS5003;17145;49.902;8.680;2023-06-22T05:29:43;14;14;
30342;PMS5003;17145;49.902;8.680;2023-06-22T05:32:11;115;109;
30342;PMS5003;17145;49.902;8.680;2023-06-22T05:34:38;158;158;
30342;PMS5003;17145;49.902;8.680;2023-06-22T05:37:05;88;87;
30342;PMS5003;17145;49.902;8.680;2023-06-22T05:39:33;25;21;
30342;PMS5003;17145;49.902;8.680;2023-06-22T05:42:00;147;147;
30342;PMS5003;17145;49.902;8.680;2023-06-22T05:44:28;21;17;
30342;PMS5003;17145;49.902;8.680;2023-06-22T05:46:55;49;44;
30342;PMS5003;17145;49.902;8.680;2023-06-22T05:49:22;22;14;
30342;PMS5003;17145;49.902;8.680;2023-06-22T05:51:50;20;13;
30342;PMS5003;17145;49.902;8.680;2023-06-22T05:54:17;50;43;
30342;PMS5003;17145;49.902;8.680;2023-06-22T05:56:45;194;192;
30342;PMS5003;17145;49.902;8.680;2023-06-22T05:59:12;73;70;
30342;PMS5003;17145;49.902;8.680;2023-06-22T06:01:39;11;11;
30342;PMS5003;17145;49.902;8.680;2023-06-22T06:04:07;13;12;
30342;PMS5003;17145;49.902;8.680;2023-06-22T06:06:34;18;18;
30342;PMS5003;17145;49.902;8.680;2023-06-22T06:09:02;30;30;
30342;PMS5003;17145;49.902;8.680;2023-06-22T06:11:29;15;15;
30342;PMS5003;17145;49.902;8.680;2023-06-22T06:13:57;14;13;
30342;PMS5003;17145;49.902;8.680;2023-06-22T06:16:24;16;15;
30342;PMS5003;17145;49.902;8.680;2023-06-22T06:18:52;14;13;
30342;PMS5003;17145;49.902;8.680;2023-06-22T06:21:19;13;13;
30342;PMS5003;17145;49.902;8.680;2023-06-22T06:23:46;13;13;
30342;PMS5003;17145;49.902;8.680;2023-06-22T06:26:14;15;15;
30342;PMS5003;17145;49.902;8.680;2023-06-22T06:28:41;15;15;
30342;PMS5003;17145;49.902;8.680;2023-06-22T06:31:09;36;36;
30342;PMS5003;17145;49.902;8.680;2023-06-22T06:33:36;12;12;
30342;PMS5003;17145;49.902;8.680;2023-06-22T06:36:04;13;13;
30342;PMS5003;17145;49.902;8.680;2023-06-22T06:38:31;13;13;
30342;PMS5003;17145;49.902;8.680;2023-06-22T06:40:59;18;17;
30342;PMS5003;17145;49.902;8.680;2023-06-22T06:43:26;32;32;
30342;PMS5003;17145;49.902;8.680;2023-06-22T06:45:53;15;13;
30342;PMS5003;17145;49.902;8.680;2023-06-22T06:48:21;24;24;
30342;PMS5003;17145;49.902;8.680;2023-06-22T06:50:48;17;14;
30342;PMS5003;17145;49.902;8.680;2023-06-22T06:53:16;16;16;
30342;PMS5003;17145;49.902;8.680;2023-06-22T06:55:43;13;13;
30342;PMS5003;17145;49.902;8.680;2023-06-22T06:58:10;12;12;
30342;PMS5003;17145;49.902;8.680;2023-06-22T07:00:38;14;13;
30342;PMS5003;17145;49.902;8.680;2023-06-22T07:03:05;15;14;
30342;PMS5003;17145;49.902;8.680;2023-06-22T07:05:33;12;12;
30342;PMS5003;17145;49.902;8.680;2023-06-22T07:08:00;13;13;
30342;PMS5003;17145;49.902;8.680;2023-06-22T07:10:28;12;12;
30342;PMS5003;17145;49.902;8.680;2023-06-22T07:12:55;14;14;
30342;PMS5003;17145;49.902;8.680;2023-06-22T07:15:23;14;14;
30342;PMS5003;17145;49.902;8.680;2023-06-22T07:17:50;12;12;
30342;PMS5003;17145;49.902;8.680;2023-06-22T07:20:18;16;16;
30342;PMS5003;17145;49.902;8.680;2023-06-22T07:22:45;13;13;
30342;PMS5003;17145;49.902;8.680;2023-06-22T07:25:12;14;14;
30342;PMS5003;17145;49.902;8.680;2023-06-22T07:27:43;14;14;
30342;PMS5003;17145;49.902;8.680;2023-06-22T07:30:12;14;14;
30342;PMS5003;17145;49.902;8.680;2023-06-22T07:32:39;12;12;
30342;PMS5003;17145;49.902;8.680;2023-06-22T07:35:07;11;11;
30342;PMS5003;17145;49.902;8.680;2023-06-22T07:37:35;15;14;
30342;PMS5003;17145;49.902;8.680;2023-06-22T07:40:03;15;15;
30342;PMS5003;17145;49.902;8.680;2023-06-22T07:42:30;16;16;
30342;PMS5003;17145;49.902;8.680;2023-06-22T07:44:58;16;16;
30342;PMS5003;17145;49.902;8.680;2023-06-22T07:47:25;14;13;
30342;PMS5003;17145;49.902;8.680;2023-06-22T07:49:53;13;13;
30342;PMS5003;17145;49.902;8.680;2023-06-22T07:52:20;19;19;
30342;PMS5003;17145;49.902;8.680;2023-06-22T07:54:48;26;26;
30342;PMS5003;17145;49.902;8.680;2023-06-22T07:57:15;48;48;
30342;PMS5003;17145;49.902;8.680;2023-06-22T07:59:42;27;21;
30342;PMS5003;17145;49.902;8.680;2023-06-22T08:02:10;15;15;
30342;PMS5003;17145;49.902;8.680;2023-06-22T08:04:37;15;14;
30342;PMS5003;17145;49.902;8.680;2023-06-22T08:07:05;16;15;
30342;PMS5003;17145;49.902;8.680;2023-06-22T08:09:32;15;15;
30342;PMS5003;17145;49.902;8.680;2023-06-22T08:12:00;14;14;
30342;PMS5003;17145;49.902;8.680;2023-06-22T08:14:29;13;13;
30342;PMS5003;17145;49.902;8.680;2023-06-22T08:16:56;13;13;
30342;PMS5003;17145;49.902;8.680;2023-06-22T08:19:24;15;15;
30342;PMS5003;17145;49.902;8.680;2023-06-22T08:21:51;14;14;
30342;PMS5003;17145;49.902;8.680;2023-06-22T08:24:18;16;15;
30342;PMS5003;17145;49.902;8.680;2023-06-22T08:26:46;19;19;
30342;PMS5003;17145;49.902;8.680;2023-06-22T08:29:13;24;24;
30342;PMS5003;17145;49.902;8.680;2023-06-22T08:31:40;34;33;
30342;PMS5003;17145;49.902;8.680;2023-06-22T08:34:07;30;29;
30342;PMS5003;17145;49.902;8.680;2023-06-22T08:36:35;48;48;
30342;PMS5003;17145;49.902;8.680;2023-06-22T08:39:02;127;127;
30342;PMS5003;17145;49.902;8.680;2023-06-22T08:41:30;119;119;
30342;PMS5003;17145;49.902;8.680;2023-06-22T08:43:57;30;30;
30342;PMS5003;17145;49.902;8.680;2023-06-22T08:46:25;15;15;
30342;PMS5003;17145;49.902;8.680;2023-06-22T08:48:52;17;16;
30342;PMS5003;17145;49.902;8.680;2023-06-22T08:51:20;17;16;
30342;PMS5003;17145;49.902;8.680;2023-06-22T08:53:47;72;66;
30342;PMS5003;17145;49.902;8.680;2023-06-22T08:56:14;55;55;
30342;PMS5003;17145;49.902;8.680;2023-06-22T08:58:42;57;49;
30342;PMS5003;17145;49.902;8.680;2023-06-22T09:01:09;53;48;
30342;PMS5003;17145;49.902;8.680;2023-06-22T09:03:37;44;42;
30342;PMS5003;17145;49.902;8.680;2023-06-22T09:06:04;17;17;
30342;PMS5003;17145;49.902;8.680;2023-06-22T09:08:32;16;16;
30342;PMS5003;17145;49.902;8.680;2023-06-22T09:10:59;15;15;
30342;PMS5003;17145;49.902;8.680;2023-06-22T09:13:27;15;15;
30342;PMS5003;17145;49.902;8.680;2023-06-22T09:15:55;16;16;
30342;PMS5003;17145;49.902;8.680;2023-06-22T09:18:23;13;13;
30342;PMS5003;17145;49.902;8.680;2023-06-22T09:20:50;14;13;
30342;PMS5003;17145;49.902;8.680;2023-06-22T09:23:18;16;15;
30342;PMS5003;17145;49.902;8.680;2023-06-22T09:25:45;17;17;
30342;PMS5003;17145;49.902;8.680;2023-06-22T09:28:12;15;15;
30342;PMS5003;17145;49.902;8.680;2023-06-22T09:30:40;14;14;
30342;PMS5003;17145;49.902;8.680;2023-06-22T09:33:07;15;15;
30342;PMS5003;17145;49.902;8.680;2023-06-22T09:35:34;14;14;
30342;PMS5003;17145;49.902;8.680;2023-06-22T09:38:02;15;15;
30342;PMS5003;17145;49.902;8.680;2023-06-22T09:40:29;17;16;
30342;PMS5003;17145;49.902;8.680;2023-06-22T09:42:56;15;15;
30342;PMS5003;17145;49.902;8.680;2023-06-22T09:45:24;14;14;
30342;PMS5003;17145;49.902;8.680;2023-06-22T09:47:51;17;17;
30342;PMS5003;17145;49.902;8.680;2023-06-22T09:50:19;19;19;
30342;PMS5003;17145;49.902;8.680;2023-06-22T09:52:46;23;17;
30342;PMS5003;17145;49.902;8.680;2023-06-22T09:55:14;16;16;
30342;PMS5003;17145;49.902;8.680;2023-06-22T09:57:41;18;17;
30342;PMS5003;17145;49.902;8.680;2023-06-22T10:00:09;21;21;
30342;PMS5003;17145;49.902;8.680;2023-06-22T10:02:39;17;17;
30342;PMS5003;17145;49.902;8.680;2023-06-22T10:05:06;17;17;
30342;PMS5003;17145;49.902;8.680;2023-06-22T10:07:33;18;18;
30342;PMS5003;17145;49.902;8.680;2023-06-22T10:10:01;16;16;
30342;PMS5003;17145;49.902;8.680;2023-06-22T10:12:28;16;16;
30342;PMS5003;17145;49.902;8.680;2023-06-22T10:14:56;17;17;
30342;PMS5003;17145;49.902;8.680;2023-06-22T10:17:23;15;15;
30342;PMS5003;17145;49.902;8.680;2023-06-22T10:19:50;16;16;
30342;PMS5003;17145;49.902;8.680;2023-06-22T10:22:18;19;17;
30342;PMS5003;17145;49.902;8.680;2023-06-22T10:24:45;17;17;
30342;PMS5003;17145;49.902;8.680;2023-06-22T10:27:13;19;17;
30342;PMS5003;17145;49.902;8.680;2023-06-22T10:29:41;16;16;
30342;PMS5003;17145;49.902;8.680;2023-06-22T10:32:08;22;17;
30342;PMS5003;17145;49.902;8.680;2023-06-22T10:34:35;16;16;
30342;PMS5003;17145;49.902;8.680;2023-06-22T10:37:03;19;18;
30342;PMS5003;17145;49.902;8.680;2023-06-22T10:39:31;16;16;
30342;PMS5003;17145;49.902;8.680;2023-06-22T10:41:58;18;17;
30342;PMS5003;17145;49.902;8.680;2023-06-22T10:44:25;17;17;
30342;PMS5003;17145;49.902;8.680;2023-06-22T10:46:53;16;16;
30342;PMS5003;17145;49.902;8.680;2023-06-22T10:49:20;18;18;
30342;PMS5003;17145;49.902;8.680;2023-06-22T10:51:47;15;15;
30342;PMS5003;17145;49.902;8.680;2023-06-22T10:54:15;15;15;
30342;PMS5003;17145;49.902;8.680;2023-06-22T10:56:42;16;16;
30342;PMS5003;17145;49.902;8.680;2023-06-22T10:59:10;17;17;
30342;PMS5003;17145;49.902;8.680;2023-06-22T11:01:37;16;16;
30342;PMS5003;17145;49.902;8.680;2023-06-22T11:04:04;16;15;
30342;PMS5003;17145;49.902;8.680;2023-06-22T11:06:32;19;19;
30342;PMS5003;17145;49.902;8.680;2023-06-22T11:08:59;18;18;
30342;PMS5003;17145;49.902;8.680;2023-06-22T11:11:27;17;17;
30342;PMS5003;17145;49.902;8.680;2023-06-22T11:13:54;18;18;
30342;PMS5003;17145;49.902;8.680;2023-06-22T11:16:21;18;17;
30342;PMS5003;17145;49.902;8.680;2023-06-22T11:18:49;17;17;
30342;PMS5003;17145;49.902;8.680;2023-06-22T11:21:17;16;16;
30342;PMS5003;17145;49.902;8.680;2023-06-22T11:23:44;17;16;
30342;PMS5003;17145;49.902;8.680;2023-06-22T11:26:12;20;19;
30342;PMS5003;17145;49.902;8.680;2023-06-22T11:28:40;19;19;
30342;PMS5003;17145;49.902;8.680;2023-06-22T11:31:07;16;16;
30342;PMS5003;17145;49.902;8.680;2023-06-22T11:33:34;19;19;
30342;PMS5003;17145;49.902;8.680;2023-06-22T11:36:02;18;18;
30342;PMS5003;17145;49.902;8.680;2023-06-22T11:38:29;19;19;
30342;PMS5003;17145;49.902;8.680;2023-06-22T11:40:57;17;17;
30342;PMS5003;17145;49.902;8.680;2023-06-22T11:43:25;17;16;
30342;PMS5003;17145;49.902;8.680;2023-06-22T11:45:52;20;19;
30342;PMS5003;17145;49.902;8.680;2023-06-22T11:48:19;19;18;
30342;PMS5003;17145;49.902;8.680;2023-06-22T11:50:47;17;17;
30342;PMS5003;17145;49.902;8.680;2023-06-22T11:53:14;16;16;
30342;PMS5003;17145;49.902;8.680;2023-06-22T11:55:41;16;16;
30342;PMS5003;17145;49.902;8.680;2023-06-22T11:58:09;21;17;
30342;PMS5003;17145;49.902;8.680;2023-06-22T12:00:36;15;15;
30342;PMS5003;17145;49.902;8.680;2023-06-22T12:03:04;14;14;
30342;PMS5003;17145;49.902;8.680;2023-06-22T12:05:31;17;17;
30342;PMS5003;17145;49.902;8.680;2023-06-22T12:07:59;16;16;
30342;PMS5003;17145;49.902;8.680;2023-06-22T12:10:26;16;16;
30342;PMS5003;17145;49.902;8.680;2023-06-22T12:12:54;18;18;
30342;PMS5003;17145;49.902;8.680;2023-06-22T12:15:21;17;17;
30342;PMS5003;17145;49.902;8.680;2023-06-22T12:17:48;17;17;
30342;PMS5003;17145;49.902;8.680;2023-06-22T12:20:16;16;16;
30342;PMS5003;17145;49.902;8.680;2023-06-22T12:22:44;18;18;
30342;PMS5003;17145;49.902;8.680;2023-06-22T12:25:11;17;17;
30342;PMS5003;17145;49.902;8.680;2023-06-22T12:27:39;17;17;
30342;PMS5003;17145;49.902;8.680;2023-06-22T12:30:06;18;18;
30342;PMS5003;17145;49.902;8.680;2023-06-22T12:32:35;18;18;
30342;PMS5003;17145;49.902;8.680;2023-06-22T12:35:03;19;18;
30342;PMS5003;17145;49.902;8.680;2023-06-22T12:37:30;18;18;
30342;PMS5003;17145;49.902;8.680;2023-06-22T12:39:58;18;17;
30342;PMS5003;17145;49.902;8.680;2023-06-22T12:42:25;20;19;
30342;PMS5003;17145;49.902;8.680;2023-06-22T12:44:53;18;18;
30342;PMS5003;17145;49.902;8.680;2023-06-22T12:47:20;18;18;
30342;PMS5003;17145;49.902;8.680;2023-06-22T12:49:47;21;20;
30342;PMS5003;17145;49.902;8.680;2023-06-22T12:52:15;18;18;
30342;PMS5003;17145;49.902;8.680;2023-06-22T12:54:42;21;20;
30342;PMS5003;17145;49.902;8.680;2023-06-22T12:57:09;19;18;
30342;PMS5003;17145;49.902;8.680;2023-06-22T12:59:37;23;23;
30342;PMS5003;17145;49.902;8.680;2023-06-22T13:02:05;18;18;
30342;PMS5003;17145;49.902;8.680;2023-06-22T13:04:32;22;20;
30342;PMS5003;17145;49.902;8.680;2023-06-22T13:06:59;23;22;
30342;PMS5003;17145;49.902;8.680;2023-06-22T13:09:27;24;22;
30342;PMS5003;17145;49.902;8.680;2023-06-22T13:11:54;24;23;
30342;PMS5003;17145;49.902;8.680;2023-06-22T13:14:22;22;21;
30342;PMS5003;17145;49.902;8.680;2023-06-22T13:16:49;23;23;
30342;PMS5003;17145;49.902;8.680;2023-06-22T13:19:17;22;22;
30342;PMS5003;17145;49.902;8.680;2023-06-22T13:21:45;24;23;
30342;PMS5003;17145;49.902;8.680;2023-06-22T13:24:12;22;22;
30342;PMS5003;17145;49.902;8.680;2023-06-22T13:26:39;24;22;
30342;PMS5003;17145;49.902;8.680;2023-06-22T13:29:07;22;22;
30342;PMS5003;17145;49.902;8.680;2023-06-22T13:31:34;22;22;
30342;PMS5003;17145;49.902;8.680;2023-06-22T13:34:02;24;23;
30342;PMS5003;17145;49.902;8.680;2023-06-22T13:36:29;23;21;
30342;PMS5003;17145;49.902;8.680;2023-06-22T13:38:57;23;23;
30342;PMS5003;17145;49.902;8.680;2023-06-22T13:41:24;25;25;
30342;PMS5003;17145;49.902;8.680;2023-06-22T13:43:51;23;23;
30342;PMS5003;17145;49.902;8.680;2023-06-22T13:46:19;24;23;
30342;PMS5003;17145;49.902;8.680;2023-06-22T13:48:46;23;23;
30342;PMS5003;17145;49.902;8.680;2023-06-22T13:51:14;24;21;
30342;PMS5003;17145;49.902;8.680;2023-06-22T13:53:41;22;22;
30342;PMS5003;17145;49.902;8.680;2023-06-22T13:56:08;25;24;
30342;PMS5003;17145;49.902;8.680;2023-06-22T13:58:36;26;25;
30342;PMS5003;17145;49.902;8.680;2023-06-22T14:01:03;25;25;
30342;PMS5003;17145;49.902;8.680;2023-06-22T14:03:31;27;25;
30342;PMS5003;17145;49.902;8.680;2023-06-22T14:05:58;23;23;
30342;PMS5003;17145;49.902;8.680;2023-06-22T14:08:26;23;23;
30342;PMS5003;17145;49.902;8.680;2023-06-22T14:10:54;25;24;
30342;PMS5003;17145;49.902;8.680;2023-06-22T14:13:21;27;25;
30342;PMS5003;17145;49.902;8.680;2023-06-22T14:15:49;24;24;
30342;PMS5003;17145;49.902;8.680;2023-06-22T14:18:17;28;28;
30342;PMS5003;17145;49.902;8.680;2023-06-22T14:20:45;24;22;
30342;PMS5003;17145;49.902;8.680;2023-06-22T14:23:12;22;21;
30342;PMS5003;17145;49.902;8.680;2023-06-22T14:25:39;22;22;
30342;PMS5003;17145;49.902;8.680;2023-06-22T14:28:07;25;24;
30342;PMS5003;17145;49.902;8.680;2023-06-22T14:30:34;26;25;
30342;PMS5003;17145;49.902;8.680;2023-06-22T14:33:02;25;25;
30342;PMS5003;17145;49.902;8.680;2023-06-22T14:35:29;23;23;
30342;PMS5003;17145;49.902;8.680;2023-06-22T14:37:57;25;24;
30342;PMS5003;17145;49.902;8.680;2023-06-22T14:40:24;26;25;
30342;PMS5003;17145;49.902;8.680;2023-06-22T14:42:51;25;24;
30342;PMS5003;17145;49.902;8.680;2023-06-22T14:45:19;31;24;
30342;PMS5003;17145;49.902;8.680;2023-06-22T14:47:46;25;25;
30342;PMS5003;17145;49.902;8.680;2023-06-22T14:50:14;28;24;
30342;PMS5003;17145;49.902;8.680;2023-06-22T14:52:42;26;21;
30342;PMS5003;17145;49.902;8.680;2023-06-22T14:55:10;23;23;
30342;PMS5003;17145;49.902;8.680;2023-06-22T14:57:37;34;27;
30342;PMS5003;17145;49.902;8.680;2023-06-22T15:00:06;24;23;
30342;PMS5003;17145;49.902;8.680;2023-06-22T15:02:34;26;26;
30342;PMS5003;17145;49.902;8.680;2023-06-22T15:05:02;25;23;
30342;PMS5003;17145;49.902;8.680;2023-06-22T15:07:30;23;22;
30342;PMS5003;17145;49.902;8.680;2023-06-22T15:09:58;27;24;
30342;PMS5003;17145;49.902;8.680;2023-06-22T15:12:26;23;23;
30342;PMS5003;17145;49.902;8.680;2023-06-22T15:14:53;22;22;
30342;PMS5003;17145;49.902;8.680;2023-06-22T15:17:21;29;25;
30342;PMS5003;17145;49.902;8.680;2023-06-22T15:19:50;22;22;
30342;PMS5003;17145;49.902;8.680;2023-06-22T15:22:18;21;21;
30342;PMS5003;17145;49.902;8.680;2023-06-22T15:24:46;24;23;
30342;PMS5003;17145;49.902;8.680;2023-06-22T15:27:13;26;24;
30342;PMS5003;17145;49.902;8.680;2023-06-22T15:29:41;23;23;
30342;PMS5003;17145;49.902;8.680;2023-06-22T15:32:08;22;21;
30342;PMS5003;17145;49.902;8.680;2023-06-22T15:34:36;24;22;
30342;PMS5003;17145;49.902;8.680;2023-06-22T15:37:04;24;23;
30342;PMS5003;17145;49.902;8.680;2023-06-22T15:39:32;20;20;
30342;PMS5003;17145;49.902;8.680;2023-06-22T15:42:00;29;25;
30342;PMS5003;17145;49.902;8.680;2023-06-22T15:44:27;21;21;
30342;PMS5003;17145;49.902;8.680;2023-06-22T15:46:55;22;21;
30342;PMS5003;17145;49.902;8.680;2023-06-22T15:49:22;25;24;
30342;PMS5003;17145;49.902;8.680;2023-06-22T15:51:51;23;22;
30342;PMS5003;17145;49.902;8.680;2023-06-22T15:54:20;22;21;
30342;PMS5003;17145;49.902;8.680;2023-06-22T15:56:47;21;20;
30342;PMS5003;17145;49.902;8.680;2023-06-22T15:59:15;22;22;
30342;PMS5003;17145;49.902;8.680;2023-06-22T16:01:43;20;20;
30342;PMS5003;17145;49.902;8.680;2023-06-22T16:04:12;24;24;
30342;PMS5003;17145;49.902;8.680;2023-06-22T16:06:39;24;22;
30342;PMS5003;17145;49.902;8.680;2023-06-22T16:09:07;23;22;
30342;PMS5003;17145;49.902;8.680;2023-06-22T16:11:34;30;24;
30342;PMS5003;17145;49.902;8.680;2023-06-22T16:14:01;23;23;
30342;PMS5003;17145;49.902;8.680;2023-06-22T16:16:30;25;24;
30342;PMS5003;17145;49.902;8.680;2023-06-22T16:18:58;21;21;
30342;PMS5003;17145;49.902;8.680;2023-06-22T16:21:25;23;21;